Sproul, Pennsylvania
Current Conditions -  °F | °C
As of 12:53 PM on Sunday 25 Jan 2015 (Local Time) from KAOO Reporting Station
Light Snow Light Snow  
Wind Chill: 29°   Ceiling: 2700
Heat Index: 34°   Visibility: 3mi
Dew Point: 33°   Wind: 6mph
Humidity: 96%   Direction: 230°SW
Pressure: 29.78"   Gusts: NA
Location:  40.27°N, 78.46°W
Report Text: KAOO 251753Z AUTO 23005KT 3SM -SN BR FEW012 SCT021 OVC027 01/01 A2978 RMK AO2 SNB28 SLP097 P0000 60000 T00110006 10011 20006 50007
Loading
Personal Weather Stations






























Interactive Weather Map New forecast layout! Learn more

10-Day Weather Forecast

Advertisements
Track Severe Weather on mobile